ENSH/SVJ METAR and TAF weather

Enter ICAO airport designator
Station Type Date Time Source
ENSH METAR 2018/09/20 17:50 UTC NOAA

ENSH 201750Z 21032G42KT 9999 FEW020 BKN030 12/08 Q0978 RESHRA RMK WIND 150FT 19035G48KT


Station Type Date Time Source
ENSH Decoded METAR 2018/09/20 17:50 UTC NOAA

Svolvaer / Helle, Norway (ENSH) 68-15N 014-40E 9M
Sep 20, 2018 - 01:50 PM EDT / 2018.09.20 1750 UTC
Wind: from the SSW (210 degrees) at 37 MPH (32 KT) gusting to 48 MPH (42 KT):0
Visibility: greater than 7 mile(s):0
Sky conditions: mostly cloudy
Temperature: 53 F (12 C)
Dew Point: 46 F (8 C)
Relative Humidity: 76%
Pressure (altimeter): 28.88 in. Hg (0978 hPa)
ob: ENSH 201750Z 21032G42KT 9999 FEW020 BKN030 12/08 Q0978 RESHRA RMK WIND 150FT 19035G48KT
cycle: 18

Station Type Date Time Source
ENSH TAF UTC NOAA

Error!


Example: see airport list